createdAt,value
2019-03-04T00:00:36.811Z,-1.10
2019-03-04T00:03:07.931Z,-1.09
2019-03-04T00:05:39.123Z,-1.11
2019-03-04T00:08:11.401Z,-1.10
2019-03-04T00:10:42.458Z,-1.05
2019-03-04T00:13:13.553Z,-1.08
2019-03-04T00:15:44.649Z,-1.02
2019-03-04T00:18:15.904Z,-1.04
2019-03-04T00:20:46.934Z,-1.01
2019-03-04T00:23:18.026Z,-1.04
2019-03-04T00:25:49.055Z,-1.00
2019-03-04T00:28:20.112Z,-1.06
2019-03-04T00:30:51.226Z,-1.08
2019-03-04T00:33:22.304Z,-0.99
2019-03-04T00:35:53.367Z,-1.03
2019-03-04T00:38:24.479Z,-1.11
2019-03-04T00:40:55.472Z,-1.08
2019-03-04T00:43:26.511Z,-1.01
2019-03-04T00:45:57.570Z,-0.99
2019-03-04T00:48:29.675Z,-1.01
2019-03-04T00:51:00.741Z,-1.02
2019-03-04T00:53:31.868Z,-1.01
2019-03-04T00:56:02.966Z,-1.03
2019-03-04T00:58:34.134Z,-0.95
2019-03-04T01:01:05.154Z,-1.03
2019-03-04T01:03:36.238Z,-0.95
2019-03-04T01:06:07.459Z,-0.95
2019-03-04T01:08:38.690Z,-0.92
2019-03-04T01:11:09.895Z,-0.93
2019-03-04T01:13:41.908Z,-0.96
2019-03-04T01:16:12.916Z,-1.01
2019-03-04T01:18:44.014Z,-1.05
2019-03-04T01:21:15.001Z,-1.02
2019-03-04T01:23:46.098Z,-1.08
2019-03-04T01:26:17.213Z,-1.13
2019-03-04T01:28:48.246Z,-1.14
2019-03-04T01:31:19.285Z,-1.19
2019-03-04T01:33:50.324Z,-1.21
2019-03-04T01:36:21.378Z,-1.27
2019-03-04T01:38:52.412Z,-1.29
2019-03-04T01:41:23.447Z,-1.29
2019-03-04T01:43:54.864Z,-1.30
2019-03-04T01:46:25.876Z,-1.33
2019-03-04T01:48:56.980Z,-1.36
2019-03-04T01:51:28.370Z,-1.36
2019-03-04T01:53:59.481Z,-1.39
2019-03-04T01:56:30.520Z,-1.39
2019-03-04T01:59:01.552Z,-1.41
2019-03-04T02:01:32.541Z,-1.45
2019-03-04T02:04:03.528Z,-1.42
2019-03-04T02:06:34.653Z,-1.36
2019-03-04T02:09:07.107Z,-1.41
2019-03-04T02:11:39.537Z,-1.45
2019-03-04T02:14:10.681Z,-1.44
2019-03-04T02:16:42.759Z,-1.37
2019-03-04T02:19:15.174Z,-1.35
2019-03-04T02:21:46.259Z,-1.33
2019-03-04T02:24:22.668Z,-1.29
2019-03-04T02:26:54.732Z,-1.27
2019-03-04T02:29:26.663Z,-1.27
2019-03-04T02:31:57.700Z,-1.23
2019-03-04T02:34:28.743Z,-1.18
2019-03-04T02:36:59.889Z,-1.11
2019-03-04T02:39:30.956Z,-1.11
2019-03-04T02:42:02.349Z,-1.07
2019-03-04T02:44:33.315Z,-1.06
2019-03-04T02:47:04.459Z,-1.01
2019-03-04T02:49:35.507Z,-1.00
2019-03-04T02:52:06.891Z,-0.94
2019-03-04T02:54:37.894Z,-0.93
2019-03-04T02:57:08.982Z,-0.89
2019-03-04T02:59:40.079Z,-0.87
2019-03-04T03:02:11.227Z,-0.77
2019-03-04T03:04:42.439Z,-0.76
2019-03-04T03:07:13.471Z,-0.74
2019-03-04T03:09:44.510Z,-0.69
2019-03-04T03:12:15.566Z,-0.65
2019-03-04T03:14:46.630Z,-0.65
2019-03-04T03:17:17.818Z,-0.67
2019-03-04T03:19:48.914Z,-0.69
2019-03-04T03:22:19.935Z,-0.73
2019-03-04T03:24:51.003Z,-0.67
2019-03-04T03:27:22.087Z,-0.72
2019-03-04T03:29:53.475Z,-0.71
2019-03-04T03:32:24.681Z,-0.69
2019-03-04T03:34:55.787Z,-0.65
2019-03-04T03:37:26.871Z,-0.69
2019-03-04T03:39:57.879Z,-0.65
2019-03-04T03:42:28.891Z,-0.60
2019-03-04T03:45:00.365Z,-0.58
2019-03-04T03:47:31.386Z,-0.62
2019-03-04T03:50:02.456Z,-0.55
2019-03-04T03:52:33.479Z,-0.57
2019-03-04T03:55:07.533Z,-0.60
2019-03-04T03:57:38.549Z,-0.58
2019-03-04T04:00:20.440Z,-0.57
2019-03-04T04:02:51.537Z,-0.60
2019-03-04T04:05:22.607Z,-0.60
2019-03-04T04:07:53.666Z,-0.59
2019-03-04T04:10:24.810Z,-0.57
2019-03-04T04:12:55.858Z,-0.59
2019-03-04T04:15:26.995Z,-0.60
2019-03-04T04:17:58.036Z,-0.59
2019-03-04T04:20:29.068Z,-0.60
2019-03-04T04:23:00.067Z,-0.61
2019-03-04T04:25:31.438Z,-0.58
2019-03-04T04:28:04.147Z,-0.62
2019-03-04T04:30:36.403Z,-0.57
2019-03-04T04:33:07.460Z,-0.62
2019-03-04T04:35:38.445Z,-0.54
2019-03-04T04:38:09.553Z,-0.57
2019-03-04T04:40:40.568Z,-0.57
2019-03-04T04:43:11.697Z,-0.57
2019-03-04T04:45:42.842Z,-0.59
2019-03-04T04:48:13.848Z,-0.52
2019-03-04T04:50:45.015Z,-0.54
2019-03-04T04:53:16.160Z,-0.50
2019-03-04T04:55:47.242Z,-0.54
2019-03-04T04:58:18.326Z,-0.37
2019-03-04T05:00:49.417Z,-0.46
2019-03-04T05:03:20.505Z,-0.39
2019-03-04T05:05:51.619Z,-0.33
2019-03-04T05:08:22.690Z,-0.28
2019-03-04T05:10:53.884Z,-0.18
2019-03-04T05:13:24.933Z,-0.15
2019-03-04T05:15:55.983Z,-0.06
2019-03-04T05:18:27.133Z,-0.05
2019-03-04T05:20:58.167Z,0.18
2019-03-04T05:23:29.202Z,0.23
2019-03-04T05:26:00.239Z,0.34
2019-03-04T05:28:31.284Z,0.29
2019-03-04T05:31:02.322Z,0.48
2019-03-04T05:33:33.412Z,0.63
2019-03-04T05:36:04.585Z,0.77
2019-03-04T05:38:35.677Z,0.76
2019-03-04T05:41:06.871Z,0.84
2019-03-04T05:43:38.060Z,0.96
2019-03-04T05:46:09.100Z,1.24
2019-03-04T05:48:40.178Z,1.37
2019-03-04T05:51:11.280Z,1.58
2019-03-04T05:53:42.425Z,1.50
2019-03-04T05:56:13.406Z,1.41
2019-03-04T05:58:44.497Z,1.32
2019-03-04T06:01:27.535Z,1.24
2019-03-04T06:04:01.721Z,1.39
2019-03-04T06:06:49.598Z,1.56
2019-03-04T06:09:20.717Z,1.34
2019-03-04T06:11:51.763Z,1.50
2019-03-04T06:14:22.826Z,1.61
2019-03-04T06:16:54.038Z,1.75
2019-03-04T06:19:25.124Z,1.57
2019-03-04T06:21:56.281Z,1.73
2019-03-04T06:24:27.387Z,1.71
2019-03-04T06:26:58.417Z,1.86
2019-03-04T06:29:29.459Z,1.91
2019-03-04T06:32:00.640Z,2.11
2019-03-04T06:34:31.762Z,2.35
2019-03-04T06:37:02.862Z,1.99
2019-03-04T06:39:34.045Z,1.90
2019-03-04T06:42:05.190Z,1.83
2019-03-04T06:44:37.562Z,1.91
2019-03-04T06:47:09.736Z,1.96
2019-03-04T06:49:40.776Z,1.93
2019-03-04T06:52:11.928Z,2.10
2019-03-04T06:54:52.138Z,2.33
2019-03-04T06:57:28.382Z,2.51
2019-03-04T07:00:21.576Z,2.82
2019-03-04T07:02:52.627Z,3.27
2019-03-04T07:05:45.990Z,3.48
2019-03-04T07:08:35.466Z,3.39
2019-03-04T07:11:06.525Z,3.27
2019-03-04T07:13:37.704Z,3.76
2019-03-04T07:16:08.675Z,3.58
2019-03-04T07:18:39.914Z,3.50
2019-03-04T07:21:12.819Z,3.23
2019-03-04T07:23:43.921Z,3.16
2019-03-04T07:26:15.299Z,3.25
2019-03-04T07:28:46.501Z,3.56
2019-03-04T07:31:17.712Z,3.45
2019-03-04T07:33:48.923Z,3.50
2019-03-04T07:36:19.914Z,3.56
2019-03-04T07:38:58.152Z,3.50
2019-03-04T07:41:29.353Z,3.53
2019-03-04T07:44:00.628Z,3.71
2019-03-04T07:46:31.701Z,3.98
2019-03-04T07:49:02.995Z,3.95
2019-03-04T07:51:34.424Z,3.81
2019-03-04T07:54:05.552Z,3.87
2019-03-04T07:56:37.081Z,3.96
2019-03-04T07:59:08.328Z,3.89
2019-03-04T08:01:39.634Z,4.05
2019-03-04T08:04:10.858Z,4.31
2019-03-04T08:06:42.150Z,4.48
2019-03-04T08:09:16.718Z,4.80
2019-03-04T08:12:10.640Z,4.76
2019-03-04T08:14:42.019Z,4.82
2019-03-04T08:17:13.246Z,4.78
2019-03-04T08:19:44.218Z,4.66
2019-03-04T08:22:15.831Z,4.54
2019-03-04T08:24:46.902Z,4.62
2019-03-04T08:27:18.522Z,4.56
2019-03-04T08:29:49.739Z,4.61
2019-03-04T08:32:21.017Z,4.79
2019-03-04T08:34:52.222Z,4.94
2019-03-04T08:37:23.413Z,4.97
2019-03-04T08:39:54.612Z,5.09
2019-03-04T08:42:26.018Z,5.24
2019-03-04T08:44:57.025Z,5.24
2019-03-04T08:47:28.121Z,5.25
2019-03-04T08:49:59.165Z,5.43
2019-03-04T08:52:30.379Z,5.43
2019-03-04T08:55:01.686Z,5.54
2019-03-04T08:57:33.345Z,5.49
2019-03-04T09:00:10.685Z,5.50
2019-03-04T09:02:42.103Z,5.47
2019-03-04T09:05:13.240Z,5.62
2019-03-04T09:07:44.442Z,5.55
2019-03-04T09:10:18.356Z,5.72
2019-03-04T09:12:49.448Z,5.94
2019-03-04T09:15:20.565Z,5.94
2019-03-04T09:17:51.866Z,6.09
2019-03-04T09:20:23.084Z,6.09
2019-03-04T09:22:56.491Z,6.12
2019-03-04T09:25:47.804Z,6.11
2019-03-04T09:28:19.486Z,6.04
2019-03-04T09:30:50.623Z,6.13
2019-03-04T09:33:21.657Z,6.13
2019-03-04T09:35:52.987Z,6.33
2019-03-04T09:38:24.245Z,6.31
2019-03-04T09:40:57.232Z,6.16
2019-03-04T09:43:28.444Z,6.39
2019-03-04T09:46:00.259Z,6.49
2019-03-04T09:48:31.385Z,6.49
2019-03-04T09:51:02.778Z,6.45
2019-03-04T09:53:39.384Z,6.49
2019-03-04T09:56:06.720Z,6.54
2019-03-04T09:58:42.568Z,6.56
2019-03-04T10:01:21.591Z,6.69
2019-03-04T10:04:21.454Z,6.67
2019-03-04T10:07:01.817Z,6.67
2019-03-04T10:09:42.744Z,6.56
2019-03-04T10:12:22.630Z,6.67
2019-03-04T10:15:27.173Z,6.73
2019-03-04T10:18:18.429Z,6.57
2019-03-04T10:20:55.426Z,6.51
2019-03-04T10:23:50.848Z,6.46
2019-03-04T10:26:40.982Z,6.46
2019-03-04T10:29:15.370Z,6.49
2019-03-04T10:31:58.672Z,6.55
2019-03-04T10:34:54.816Z,6.48
2019-03-04T10:37:57.577Z,6.53
2019-03-04T10:40:48.114Z,6.64
2019-03-04T10:43:48.234Z,6.72
2019-03-04T10:46:40.955Z,6.73
2019-03-04T10:49:11.988Z,6.88
2019-03-04T10:51:43.088Z,6.90
2019-03-04T10:54:14.260Z,7.07
2019-03-04T10:56:45.332Z,7.14
2019-03-04T10:59:16.420Z,7.29
2019-03-04T11:01:49.917Z,7.25
2019-03-04T11:04:20.211Z,7.23
2019-03-04T11:06:51.245Z,7.21
2019-03-04T11:09:22.197Z,7.23
2019-03-04T11:11:53.126Z,7.23
2019-03-04T11:14:24.195Z,7.28
2019-03-04T11:16:55.127Z,7.28
2019-03-04T11:19:26.219Z,7.24
2019-03-04T11:21:57.277Z,7.30
2019-03-04T11:24:28.303Z,7.30
2019-03-04T11:27:00.506Z,7.32
2019-03-04T11:29:31.788Z,7.37
2019-03-04T11:32:03.743Z,7.37
2019-03-04T11:34:34.866Z,7.45
2019-03-04T11:37:05.825Z,7.41
2019-03-04T11:39:47.311Z,7.39
2019-03-04T11:42:18.358Z,7.35
2019-03-04T11:44:49.393Z,7.36
2019-03-04T11:47:22.218Z,7.36
2019-03-04T11:49:53.523Z,7.36
2019-03-04T11:52:24.634Z,7.38
2019-03-04T11:54:56.081Z,7.41
2019-03-04T11:57:27.128Z,7.44
2019-03-04T11:59:58.355Z,7.37
2019-03-04T12:02:38.552Z,7.41
2019-03-04T12:05:02.644Z,7.40
2019-03-04T12:07:33.733Z,7.41
2019-03-04T12:10:07.998Z,7.42
2019-03-04T12:12:39.276Z,7.43
2019-03-04T12:15:13.777Z,7.53
2019-03-04T12:17:44.989Z,7.52
2019-03-04T12:20:16.492Z,7.59
2019-03-04T12:22:47.622Z,7.63
2019-03-04T12:25:20.569Z,7.47
2019-03-04T12:27:51.488Z,7.57
2019-03-04T12:30:24.008Z,7.42
2019-03-04T12:32:55.104Z,7.35
2019-03-04T12:35:26.102Z,7.48
2019-03-04T12:37:57.086Z,7.44
2019-03-04T12:40:28.023Z,7.38
2019-03-04T12:42:59.208Z,7.36
2019-03-04T12:45:34.446Z,7.33
2019-03-04T12:48:03.161Z,7.37
2019-03-04T12:50:35.666Z,7.37
2019-03-04T12:53:06.691Z,7.44
2019-03-04T12:55:37.710Z,7.43
2019-03-04T12:58:08.853Z,7.43
2019-03-04T13:00:40.141Z,7.42
2019-03-04T13:03:17.125Z,7.44
2019-03-04T13:05:48.006Z,7.46
2019-03-04T13:08:18.870Z,7.50
2019-03-04T13:10:50.009Z,7.46
2019-03-04T13:13:21.108Z,7.44
2019-03-04T13:15:52.144Z,7.44
2019-03-04T13:18:23.094Z,7.26
2019-03-04T13:20:54.120Z,7.09
2019-03-04T13:23:25.169Z,7.09
2019-03-04T13:25:56.238Z,6.94
2019-03-04T13:28:27.234Z,6.94
2019-03-04T13:30:58.300Z,6.96
2019-03-04T13:33:29.311Z,6.88
2019-03-04T13:36:00.325Z,6.80
2019-03-04T13:38:31.395Z,6.73
2019-03-04T13:41:02.289Z,6.72
2019-03-04T13:43:33.283Z,6.66
2019-03-04T13:46:04.433Z,6.63
2019-03-04T13:48:35.461Z,6.63
2019-03-04T13:51:06.338Z,6.52
2019-03-04T13:53:37.406Z,6.55
2019-03-04T13:56:08.343Z,6.47
2019-03-04T13:58:39.513Z,6.58
2019-03-04T14:01:10.551Z,6.61
2019-03-04T14:03:41.504Z,6.53
2019-03-04T14:06:12.496Z,6.59
2019-03-04T14:08:43.589Z,6.60
2019-03-04T14:11:14.572Z,6.55
2019-03-04T14:13:45.490Z,6.62
2019-03-04T14:16:16.429Z,6.66
2019-03-04T14:18:47.418Z,6.57
2019-03-04T14:21:18.511Z,6.71
2019-03-04T14:23:49.469Z,6.73
2019-03-04T14:26:20.672Z,6.76
2019-03-04T14:28:51.990Z,6.76
2019-03-04T14:31:22.986Z,6.83
2019-03-04T14:33:54.003Z,6.83
2019-03-04T14:36:24.941Z,6.82
2019-03-04T14:38:55.951Z,6.82
2019-03-04T14:41:27.049Z,6.87
2019-03-04T14:43:58.110Z,6.83
2019-03-04T14:46:28.985Z,6.84
2019-03-04T14:49:00.931Z,6.77
2019-03-04T14:51:32.097Z,6.79
2019-03-04T14:54:03.428Z,6.75
2019-03-04T14:56:34.434Z,6.70
2019-03-04T14:59:10.955Z,6.66
2019-03-04T15:01:39.484Z,6.71
2019-03-04T15:04:10.875Z,6.59
2019-03-04T15:06:42.277Z,6.54
2019-03-04T15:09:13.829Z,6.54
2019-03-04T15:11:44.920Z,6.56
2019-03-04T15:14:15.857Z,6.51
2019-03-04T15:16:46.858Z,6.47
2019-03-04T15:19:17.873Z,6.47
2019-03-04T15:21:49.274Z,6.46
2019-03-04T15:24:21.469Z,6.46
2019-03-04T15:26:52.485Z,6.45
2019-03-04T15:29:23.946Z,6.46
2019-03-04T15:31:54.887Z,6.45
2019-03-04T15:34:28.448Z,6.45
2019-03-04T15:36:58.777Z,6.42
2019-03-04T15:39:30.063Z,6.44
2019-03-04T15:42:01.124Z,6.45
2019-03-04T15:44:32.092Z,6.50
2019-03-04T15:47:03.053Z,6.54
2019-03-04T15:49:34.057Z,6.47
2019-03-04T15:52:06.787Z,6.57
2019-03-04T15:54:37.981Z,6.53
2019-03-04T15:57:11.307Z,6.54
2019-03-04T15:59:41.920Z,6.48
2019-03-04T16:02:13.101Z,6.46
2019-03-04T16:04:44.285Z,6.42
2019-03-04T16:07:15.865Z,6.42
2019-03-04T16:09:47.432Z,6.43
2019-03-04T16:12:20.056Z,6.44
2019-03-04T16:14:51.129Z,6.44
2019-03-04T16:17:22.211Z,6.35
2019-03-04T16:19:53.317Z,6.33
2019-03-04T16:22:24.343Z,6.36
2019-03-04T16:24:55.404Z,6.36
2019-03-04T16:27:26.538Z,6.38
2019-03-04T16:29:57.710Z,6.32
2019-03-04T16:32:28.857Z,6.41
2019-03-04T16:34:59.815Z,6.44
2019-03-04T16:37:31.082Z,6.44
2019-03-04T16:40:02.166Z,6.35
2019-03-04T16:42:33.304Z,6.44
2019-03-04T16:45:07.110Z,6.44
2019-03-04T16:47:38.129Z,6.30
2019-03-04T16:50:17.259Z,6.30
2019-03-04T16:52:51.666Z,6.26
2019-03-04T16:55:22.686Z,6.35
2019-03-04T16:57:53.888Z,6.28
2019-03-04T17:00:24.895Z,6.25
2019-03-04T17:02:55.990Z,6.25
2019-03-04T17:05:27.669Z,6.29
2019-03-04T17:07:59.120Z,6.18
2019-03-04T17:10:30.215Z,6.18
2019-03-04T17:13:01.255Z,6.27
2019-03-04T17:15:32.251Z,6.24
2019-03-04T17:18:03.246Z,6.30
2019-03-04T17:20:34.257Z,6.26
2019-03-04T17:23:05.636Z,6.19
2019-03-04T17:25:36.633Z,6.18
2019-03-04T17:28:07.580Z,6.18
2019-03-04T17:30:38.578Z,6.13
2019-03-04T17:33:09.550Z,6.14
2019-03-04T17:35:40.484Z,6.07
2019-03-04T17:38:11.600Z,5.98
2019-03-04T17:40:42.897Z,5.98
2019-03-04T17:43:13.921Z,6.05
2019-03-04T17:45:44.962Z,6.01
2019-03-04T17:48:16.038Z,6.08
2019-03-04T17:50:47.823Z,6.09
2019-03-04T17:53:18.741Z,5.97
2019-03-04T17:55:49.713Z,6.12
2019-03-04T17:58:20.731Z,6.05
2019-03-04T18:00:53.704Z,6.01
2019-03-04T18:03:24.697Z,5.82
2019-03-04T18:05:55.756Z,5.89
2019-03-04T18:08:26.913Z,5.73
2019-03-04T18:10:58.045Z,5.73
2019-03-04T18:13:29.145Z,5.70
2019-03-04T18:16:00.101Z,5.72
2019-03-04T18:18:31.073Z,5.57
2019-03-04T18:21:02.010Z,5.62
2019-03-04T18:23:32.990Z,5.61
2019-03-04T18:26:08.626Z,5.51
2019-03-04T18:28:58.056Z,5.51
2019-03-04T18:31:47.225Z,5.50
2019-03-04T18:34:27.353Z,5.44
2019-03-04T18:37:16.605Z,5.47
2019-03-04T18:40:03.171Z,5.44
2019-03-04T18:42:49.071Z,5.32
2019-03-04T18:45:26.340Z,5.33
2019-03-04T18:48:32.480Z,5.36
2019-03-04T18:51:03.526Z,5.34
2019-03-04T18:53:34.537Z,5.25
2019-03-04T18:56:05.601Z,5.29
2019-03-04T18:58:36.781Z,5.25
2019-03-04T19:01:08.652Z,5.19
2019-03-04T19:03:41.276Z,5.21
2019-03-04T19:06:15.151Z,5.24
2019-03-04T19:08:46.214Z,5.18
2019-03-04T19:11:17.178Z,5.18
2019-03-04T19:13:48.404Z,5.15
2019-03-04T19:16:19.645Z,5.10
2019-03-04T19:18:50.819Z,5.01
2019-03-04T19:21:21.958Z,4.98
2019-03-04T19:23:53.201Z,4.94
2019-03-04T19:26:24.385Z,4.90
2019-03-04T19:28:55.433Z,4.98
2019-03-04T19:31:26.478Z,4.90
2019-03-04T19:33:57.613Z,4.90
2019-03-04T19:36:28.817Z,4.85
2019-03-04T19:38:59.792Z,4.82
2019-03-04T19:41:30.885Z,4.79
2019-03-04T19:44:02.213Z,4.74
2019-03-04T19:46:33.273Z,4.72
2019-03-04T19:49:04.352Z,4.68
2019-03-04T19:51:35.454Z,4.71
2019-03-04T19:54:08.141Z,4.71
2019-03-04T19:56:39.099Z,4.70
2019-03-04T19:59:10.045Z,4.62
2019-03-04T20:01:41.314Z,4.57
2019-03-04T20:04:12.373Z,4.54
2019-03-04T20:06:43.576Z,4.52
2019-03-04T20:09:14.689Z,4.49
2019-03-04T20:11:46.073Z,4.52
2019-03-04T20:14:17.495Z,4.43
2019-03-04T20:16:49.696Z,4.46
2019-03-04T20:19:20.860Z,4.39
2019-03-04T20:21:52.109Z,4.36
2019-03-04T20:24:23.275Z,4.33
2019-03-04T20:26:54.438Z,4.34
2019-03-04T20:29:25.524Z,4.31
2019-03-04T20:31:56.532Z,4.33
2019-03-04T20:34:27.515Z,4.33
2019-03-04T20:36:59.718Z,4.30
2019-03-04T20:39:30.797Z,4.24
2019-03-04T20:42:01.937Z,4.20
2019-03-04T20:44:34.008Z,4.20
2019-03-04T20:47:05.080Z,4.18
2019-03-04T20:49:36.295Z,4.19
2019-03-04T20:52:07.338Z,4.18
2019-03-04T20:54:38.407Z,4.14
2019-03-04T20:57:09.552Z,4.11
2019-03-04T20:59:40.759Z,4.12
2019-03-04T21:02:11.960Z,4.09
2019-03-04T21:04:43.538Z,4.12
2019-03-04T21:07:14.719Z,4.08
2019-03-04T21:09:45.837Z,4.06
2019-03-04T21:12:18.388Z,4.05
2019-03-04T21:14:49.655Z,4.03
2019-03-04T21:17:20.609Z,4.01
2019-03-04T21:19:51.649Z,3.99
2019-03-04T21:22:22.585Z,3.99
2019-03-04T21:24:53.580Z,3.94
2019-03-04T21:27:24.694Z,3.95
2019-03-04T21:29:58.912Z,3.89
2019-03-04T21:32:33.116Z,3.88
2019-03-04T21:35:19.745Z,3.84
2019-03-04T21:37:51.113Z,3.83
2019-03-04T21:40:28.377Z,3.88
2019-03-04T21:43:11.356Z,3.80
2019-03-04T21:46:05.606Z,3.80
2019-03-04T21:48:39.906Z,3.76
2019-03-04T21:51:23.132Z,3.75
2019-03-04T21:53:54.263Z,3.66
2019-03-04T21:56:51.190Z,3.67
2019-03-04T21:59:23.132Z,3.68
2019-03-04T22:02:00.201Z,3.63
2019-03-04T22:04:31.373Z,3.65
2019-03-04T22:07:02.302Z,3.68
2019-03-04T22:09:33.376Z,3.62
2019-03-04T22:12:06.244Z,3.62
2019-03-04T22:14:37.380Z,3.58
2019-03-04T22:17:09.334Z,3.57
2019-03-04T22:19:40.289Z,3.57
2019-03-04T22:22:11.274Z,3.56
2019-03-04T22:24:42.595Z,3.56
2019-03-04T22:27:13.660Z,3.57
2019-03-04T22:29:44.709Z,3.58
2019-03-04T22:32:15.655Z,3.62
2019-03-04T22:34:46.685Z,3.63
2019-03-04T22:37:17.736Z,3.62
2019-03-04T22:39:48.772Z,3.60
2019-03-04T22:42:19.709Z,3.57
2019-03-04T22:44:50.655Z,3.54
2019-03-04T22:47:21.707Z,3.48
2019-03-04T22:49:52.805Z,3.50
2019-03-04T22:52:23.764Z,3.47
2019-03-04T22:54:54.685Z,3.43
2019-03-04T22:57:25.648Z,3.39
2019-03-04T22:59:56.597Z,3.40
2019-03-04T23:02:28.023Z,3.36
2019-03-04T23:04:58.974Z,3.36
2019-03-04T23:07:29.926Z,3.33
2019-03-04T23:10:00.908Z,3.29
2019-03-04T23:12:39.248Z,3.32
2019-03-04T23:15:22.497Z,3.29
2019-03-04T23:17:53.514Z,3.24
2019-03-04T23:20:24.482Z,3.26
2019-03-04T23:22:55.411Z,3.22
2019-03-04T23:25:26.317Z,3.25
2019-03-04T23:27:57.254Z,3.22
2019-03-04T23:30:28.353Z,3.21
2019-03-04T23:32:59.227Z,3.19
2019-03-04T23:35:30.266Z,3.17
2019-03-04T23:38:01.262Z,3.18
2019-03-04T23:40:32.334Z,3.17
2019-03-04T23:43:03.197Z,3.18
2019-03-04T23:45:34.217Z,3.25
2019-03-04T23:48:05.452Z,3.21
2019-03-04T23:50:36.415Z,3.22
2019-03-04T23:53:07.410Z,3.19
2019-03-04T23:55:38.398Z,3.23
2019-03-04T23:58:09.388Z,3.25
